createdAt,value
2022-08-12T00:00:05.397Z,101832.53
2022-08-12T00:02:50.510Z,101833.72
2022-08-12T00:05:38.307Z,101837.84
2022-08-12T00:08:42.610Z,101830.47
2022-08-12T00:11:29.582Z,101830.03
2022-08-12T00:14:14.675Z,101834.75
2022-08-12T00:17:01.241Z,101831.59
2022-08-12T00:19:46.444Z,101827.38
2022-08-12T00:22:31.887Z,101826.91
2022-08-12T00:25:17.900Z,101825.44
2022-08-12T00:28:05.383Z,101832.22
2022-08-12T00:30:51.079Z,101831.56
2022-08-12T00:33:51.630Z,101819.13
2022-08-12T00:36:43.269Z,101820.13
2022-08-12T00:39:30.334Z,101822.84
2022-08-12T00:42:12.781Z,101828.59
2022-08-12T00:44:44.889Z,101827.09
2022-08-12T00:47:25.143Z,101828.31
2022-08-12T00:49:55.157Z,101827.84
2022-08-12T00:52:24.103Z,101834.47
2022-08-12T00:54:53.761Z,101830.25
2022-08-12T00:57:23.061Z,101828.13
2022-08-12T00:59:54.210Z,101811.53
2022-08-12T01:02:27.747Z,101828.84
2022-08-12T01:05:14.626Z,101830.41
2022-08-12T01:08:00.713Z,101831.81
2022-08-12T01:10:47.442Z,101827.97
2022-08-12T01:13:19.442Z,101821.00
2022-08-12T01:15:51.323Z,101823.50
2022-08-12T01:18:20.616Z,101830.09
2022-08-12T01:20:51.344Z,101815.00
2022-08-12T01:23:36.606Z,101808.09
2022-08-12T01:26:07.807Z,101829.13
2022-08-12T01:28:36.970Z,101824.06
2022-08-12T01:31:06.434Z,101813.34
2022-08-12T01:33:39.028Z,101825.28
2022-08-12T01:36:10.826Z,101823.63
2022-08-12T01:38:39.454Z,101815.78
2022-08-12T01:41:10.101Z,101824.00
2022-08-12T01:43:38.690Z,101829.53
2022-08-12T01:46:09.738Z,101818.09
2022-08-12T01:48:51.378Z,101818.81
2022-08-12T01:52:12.649Z,101816.00
2022-08-12T01:54:17.374Z,101823.25
2022-08-12T01:56:51.872Z,101823.63
2022-08-12T01:59:45.540Z,101815.22
2022-08-12T02:02:17.204Z,101816.25
2022-08-12T02:05:24.802Z,101821.00
2022-08-12T02:08:21.086Z,101818.81
2022-08-12T02:11:14.491Z,101819.84
2022-08-12T02:14:12.714Z,101825.41
2022-08-12T02:16:54.884Z,101804.63
2022-08-12T02:19:35.742Z,101805.66
2022-08-12T02:22:14.817Z,101823.59
2022-08-12T02:24:43.751Z,101816.56
2022-08-12T02:27:13.986Z,101804.31
2022-08-12T02:29:43.221Z,101819.75
2022-08-12T02:32:11.430Z,101818.09
2022-08-12T02:34:39.142Z,101830.53
2022-08-12T02:37:09.693Z,101823.47
2022-08-12T02:39:38.496Z,101820.78
2022-08-12T02:42:07.837Z,101819.13
2022-08-12T02:44:40.183Z,101821.16
2022-08-12T02:47:57.142Z,101822.19
2022-08-12T02:49:59.478Z,101806.69
2022-08-12T02:52:27.992Z,101821.50
2022-08-12T02:55:01.482Z,101810.88
2022-08-12T02:57:29.629Z,101819.97
2022-08-12T02:59:57.461Z,101814.09
2022-08-12T03:02:28.750Z,101817.78
2022-08-12T03:04:58.366Z,101810.72
2022-08-12T03:07:56.114Z,101810.25
2022-08-12T03:10:36.552Z,101809.44
2022-08-12T03:13:08.188Z,101807.06
2022-08-12T03:15:36.561Z,101810.13
2022-08-12T03:18:25.725Z,101798.38
2022-08-12T03:20:56.256Z,101804.59
2022-08-12T03:23:29.625Z,101802.09
2022-08-12T03:26:00.622Z,101809.84
2022-08-12T03:28:50.317Z,101802.47
2022-08-12T03:31:19.564Z,101810.91
2022-08-12T03:34:02.310Z,101794.97
2022-08-12T03:36:31.809Z,101802.22
2022-08-12T03:39:23.561Z,101809.97
2022-08-12T03:42:12.284Z,101810.47
2022-08-12T03:45:00.740Z,101801.91
2022-08-12T03:47:49.833Z,101797.56
2022-08-12T03:50:37.004Z,101803.97
2022-08-12T03:53:24.220Z,101804.09
2022-08-12T03:56:09.319Z,101797.72
2022-08-12T03:58:55.566Z,101805.78
2022-08-12T04:01:23.458Z,101797.91
2022-08-12T04:03:54.605Z,101804.94
2022-08-12T04:06:35.316Z,101805.97
2022-08-12T04:09:14.591Z,101803.47
2022-08-12T04:12:03.021Z,101803.63
2022-08-12T04:14:30.882Z,101796.91
2022-08-12T04:16:59.090Z,101798.94
2022-08-12T04:19:27.207Z,101804.66
2022-08-12T04:22:01.639Z,101806.66
2022-08-12T04:24:31.430Z,101802.13
2022-08-12T04:26:59.224Z,101795.06
2022-08-12T04:30:31.214Z,101801.28
2022-08-12T04:32:15.739Z,101801.28
2022-08-12T04:34:44.511Z,101795.44
2022-08-12T04:37:16.033Z,101793.94
2022-08-12T04:39:45.901Z,101778.66
2022-08-12T04:42:13.772Z,101783.50
2022-08-12T04:44:42.494Z,101792.91
2022-08-12T04:47:12.218Z,101792.91
2022-08-12T04:49:41.052Z,101795.78
2022-08-12T04:52:09.007Z,101794.91
2022-08-12T04:54:38.174Z,101798.47
2022-08-12T04:57:09.351Z,101802.97
2022-08-12T04:59:47.562Z,101805.66
2022-08-12T05:02:21.270Z,101799.31
2022-08-12T05:04:51.455Z,101802.84
2022-08-12T05:07:19.639Z,101795.78
2022-08-12T05:09:59.023Z,101802.16
2022-08-12T05:12:31.483Z,101796.63
2022-08-12T05:14:59.250Z,101794.59
2022-08-12T05:17:28.043Z,101793.56
2022-08-12T05:19:57.070Z,101794.22
2022-08-12T05:22:26.302Z,101802.13
2022-08-12T05:24:55.597Z,101803.66
2022-08-12T05:27:23.752Z,101795.41
2022-08-12T05:30:07.007Z,101795.22
2022-08-12T05:32:37.592Z,101800.44
2022-08-12T05:35:08.156Z,101805.47
2022-08-12T05:37:36.448Z,101799.09
2022-08-12T05:40:10.983Z,101801.97
2022-08-12T05:42:39.627Z,101809.34
2022-08-12T05:45:08.658Z,101809.34
2022-08-12T05:47:44.839Z,101806.31
2022-08-12T05:50:21.263Z,101804.28
2022-08-12T05:52:48.976Z,101805.81
2022-08-12T05:55:18.148Z,101810.00
2022-08-12T05:57:48.998Z,101806.31
2022-08-12T06:00:18.391Z,101809.66
2022-08-12T06:02:46.620Z,101815.03
2022-08-12T06:05:14.456Z,101812.34
2022-08-12T06:08:01.738Z,101810.34
2022-08-12T06:10:33.176Z,101816.88
2022-08-12T06:13:02.529Z,101809.31
2022-08-12T06:15:31.219Z,101810.97
2022-08-12T06:18:13.837Z,101804.25
2022-08-12T06:20:44.801Z,101812.81
2022-08-12T06:23:12.900Z,101813.00
2022-08-12T06:25:42.193Z,101820.53
2022-08-12T06:28:17.211Z,101823.38
2022-08-12T06:31:08.185Z,101813.78
2022-08-12T06:33:57.870Z,101816.75
2022-08-12T06:36:24.992Z,101821.81
2022-08-12T06:38:57.999Z,101813.88
2022-08-12T06:42:30.566Z,101816.03
2022-08-12T06:44:32.739Z,101805.41
2022-08-12T06:47:00.597Z,101806.56
2022-08-12T06:49:36.358Z,101806.88
2022-08-12T06:52:04.891Z,101809.69
2022-08-12T06:54:33.262Z,101794.69
2022-08-12T06:57:04.851Z,101796.66
2022-08-12T06:59:35.529Z,101796.16
2022-08-12T07:02:03.268Z,101798.28
2022-08-12T07:04:39.226Z,101801.47
2022-08-12T07:07:08.657Z,101801.56
2022-08-12T07:10:06.907Z,101807.06
2022-08-12T07:12:27.960Z,101806.75
2022-08-12T07:14:56.503Z,101805.00
2022-08-12T07:17:24.222Z,101808.66
2022-08-12T07:19:53.566Z,101801.22
2022-08-12T07:22:23.271Z,101800.66
2022-08-12T07:25:11.412Z,101807.81
2022-08-12T07:27:42.271Z,101809.81
2022-08-12T07:30:11.337Z,101800.38
2022-08-12T07:32:40.180Z,101806.88
2022-08-12T07:35:08.727Z,101810.69
2022-08-12T07:37:41.639Z,101811.00
2022-08-12T07:40:11.590Z,101812.28
2022-08-12T07:44:27.903Z,101812.22
2022-08-12T07:46:55.549Z,101813.13
2022-08-12T07:49:24.755Z,101815.09
2022-08-12T07:51:52.442Z,101810.63
2022-08-12T07:54:20.044Z,101814.44
2022-08-12T07:56:47.748Z,101814.53
2022-08-12T07:59:15.513Z,101813.66
2022-08-12T08:01:44.620Z,101820.06
2022-08-12T08:04:35.298Z,101821.72
2022-08-12T08:07:03.346Z,101821.16
2022-08-12T08:09:31.837Z,101821.44
2022-08-12T08:12:18.639Z,101813.84
2022-08-12T08:14:49.959Z,101819.81
2022-08-12T08:17:19.850Z,101821.16
2022-08-12T08:20:03.324Z,101827.13
2022-08-12T08:22:41.435Z,101826.00
2022-08-12T08:25:34.826Z,101818.38
2022-08-12T08:28:02.862Z,101819.09
2022-08-12T08:30:31.921Z,101814.59
2022-08-12T08:33:01.225Z,101815.00
2022-08-12T08:35:46.241Z,101816.94
2022-08-12T08:38:31.898Z,101815.53
2022-08-12T08:42:16.660Z,101822.69
2022-08-12T08:44:10.625Z,101826.72
2022-08-12T08:46:38.640Z,101819.56
2022-08-12T08:49:08.549Z,101823.78
2022-08-12T08:51:36.976Z,101819.00
2022-08-12T08:54:06.699Z,101819.00
2022-08-12T08:56:34.648Z,101825.50
2022-08-12T08:59:02.451Z,101820.97
2022-08-12T09:01:37.751Z,101822.63
2022-08-12T09:05:12.658Z,101822.25
2022-08-12T09:07:17.852Z,101817.22
2022-08-12T09:13:06.305Z,101811.81
2022-08-12T09:15:36.332Z,101816.44
2022-08-12T09:18:08.773Z,101810.69
2022-08-12T09:20:39.434Z,101797.88
2022-08-12T09:23:58.837Z,101810.44
2022-08-12T09:26:03.837Z,101792.09
2022-08-12T09:28:33.029Z,101808.16
2022-08-12T09:31:01.230Z,101801.50
2022-08-12T09:34:28.894Z,101806.75
2022-08-12T09:36:31.102Z,101805.34
2022-08-12T09:40:04.295Z,101808.50
2022-08-12T09:42:38.908Z,101810.41
2022-08-12T09:45:22.816Z,101799.56
2022-08-12T09:47:59.627Z,101787.25
2022-08-12T09:50:28.574Z,101791.44
2022-08-12T09:53:15.693Z,101795.19
2022-08-12T09:55:57.336Z,101786.22
2022-08-12T09:58:57.818Z,101777.03
2022-08-12T10:01:23.418Z,101774.69
2022-08-12T10:04:04.230Z,101776.78
2022-08-12T10:06:36.751Z,101778.00
2022-08-12T10:09:21.738Z,101772.75
2022-08-12T10:12:12.270Z,101775.06
2022-08-12T10:14:49.960Z,101777.31
2022-08-12T10:17:22.801Z,101772.47
2022-08-12T10:19:52.847Z,101767.06
2022-08-12T10:22:38.852Z,101762.25
2022-08-12T10:26:18.233Z,101750.25
2022-08-12T10:28:35.119Z,101745.84
2022-08-12T10:31:05.091Z,101746.84
2022-08-12T10:33:33.547Z,101748.50
2022-08-12T10:36:12.393Z,101741.72
2022-08-12T10:38:41.516Z,101734.63
2022-08-12T10:41:56.940Z,101739.34
2022-08-12T10:44:18.524Z,101734.00
2022-08-12T10:46:49.412Z,101728.88
2022-08-12T10:50:02.464Z,101723.16
2022-08-12T10:52:34.335Z,101727.03
2022-08-12T10:54:55.961Z,101721.53
2022-08-12T10:58:15.041Z,101720.34
2022-08-12T11:00:34.808Z,101718.53
2022-08-12T11:04:31.666Z,101701.94
2022-08-12T11:07:07.348Z,101709.78
2022-08-12T11:08:43.047Z,101707.66
2022-08-12T11:11:17.814Z,101707.75
2022-08-12T11:14:34.066Z,101701.22
2022-08-12T11:17:06.437Z,101701.28
2022-08-12T11:19:45.978Z,101691.72
2022-08-12T11:22:13.872Z,101688.88
2022-08-12T11:24:42.026Z,101687.25
2022-08-12T11:27:18.926Z,101675.59
2022-08-12T11:30:01.761Z,101675.88
2022-08-12T11:34:53.757Z,101672.63
2022-08-12T11:37:26.085Z,101660.16
2022-08-12T11:42:34.771Z,101666.06
2022-08-12T11:45:03.500Z,101669.84
2022-08-12T11:47:32.840Z,101673.84
2022-08-12T11:50:01.942Z,101668.06
2022-08-12T11:52:55.457Z,101669.31
2022-08-12T11:55:17.882Z,101666.34
2022-08-12T11:58:07.613Z,101660.91
2022-08-12T12:03:43.691Z,101663.84
2022-08-12T12:06:16.365Z,101657.03
2022-08-12T12:08:50.370Z,101649.34
2022-08-12T12:11:19.226Z,101653.03
2022-08-12T12:14:08.323Z,101658.84
2022-08-12T12:16:38.209Z,101657.44
2022-08-12T12:19:08.836Z,101650.78
2022-08-12T12:21:48.740Z,101649.50
2022-08-12T12:24:21.176Z,101656.63
2022-08-12T12:27:00.781Z,101645.72
2022-08-12T12:30:19.552Z,101645.72
2022-08-12T12:32:18.587Z,101650.13
2022-08-12T12:35:13.917Z,101652.41
2022-08-12T12:38:04.269Z,101644.56
2022-08-12T12:40:29.813Z,101633.75
2022-08-12T12:43:43.357Z,101638.59
2022-08-12T12:47:58.219Z,101627.94
2022-08-12T12:50:35.201Z,101626.03
2022-08-12T12:55:26.535Z,101620.34
2022-08-12T12:59:33.779Z,101616.16
2022-08-12T13:02:12.656Z,101614.88
2022-08-12T13:04:40.742Z,101614.25
2022-08-12T13:07:09.144Z,101611.06
2022-08-12T13:09:37.172Z,101618.63
2022-08-12T13:12:08.837Z,101612.72
2022-08-12T13:14:39.683Z,101609.88
2022-08-12T13:17:09.580Z,101603.09
2022-08-12T13:19:43.438Z,101601.59
2022-08-12T13:22:18.542Z,101609.56
2022-08-12T13:24:54.650Z,101599.00
2022-08-12T13:27:28.321Z,101590.31
2022-08-12T13:30:11.335Z,101599.25
2022-08-12T13:32:40.775Z,101595.94
2022-08-12T13:35:19.661Z,101594.75
2022-08-12T13:37:54.717Z,101602.19
2022-08-12T13:40:24.805Z,101598.94
2022-08-12T13:42:57.477Z,101595.97
2022-08-12T13:45:27.134Z,101588.47
2022-08-12T13:47:58.397Z,101582.81
2022-08-12T13:50:32.540Z,101572.09
2022-08-12T13:53:22.996Z,101575.66
2022-08-12T13:56:02.006Z,101584.06
2022-08-12T13:58:32.922Z,101586.41
2022-08-12T14:01:06.159Z,101573.66
2022-08-12T14:03:50.188Z,101570.19
2022-08-12T14:06:19.846Z,101564.69
2022-08-12T14:08:49.878Z,101574.41
2022-08-12T14:11:19.286Z,101563.41
2022-08-12T14:14:03.855Z,101565.41
2022-08-12T14:16:49.035Z,101574.50
2022-08-12T14:19:25.016Z,101568.38
2022-08-12T14:22:00.756Z,101568.03
2022-08-12T14:24:35.309Z,101562.09
2022-08-12T14:27:03.211Z,101555.03
2022-08-12T14:29:38.186Z,101556.03
2022-08-12T14:32:20.553Z,101551.94
2022-08-12T14:34:51.716Z,101556.56
2022-08-12T14:37:56.782Z,101559.91
2022-08-12T14:40:09.341Z,101549.34
2022-08-12T14:42:37.022Z,101547.31
2022-08-12T14:45:07.094Z,101548.59
2022-08-12T14:47:36.219Z,101549.63
2022-08-12T14:50:37.503Z,101547.44
2022-08-12T14:54:49.942Z,101541.47
2022-08-12T14:58:37.950Z,101531.75
2022-08-12T15:01:46.055Z,101529.41
2022-08-12T15:04:17.307Z,101529.41
2022-08-12T15:06:52.726Z,101534.28
2022-08-12T15:09:28.844Z,101522.44
2022-08-12T15:12:03.334Z,101530.47
2022-08-12T15:14:31.397Z,101535.34
2022-08-12T15:17:00.717Z,101535.34
2022-08-12T15:20:11.036Z,101535.13
2022-08-12T15:22:37.103Z,101529.41
2022-08-12T15:25:07.086Z,101527.41
2022-08-12T15:28:04.259Z,101537.19
2022-08-12T15:30:26.697Z,101537.09
2022-08-12T15:32:58.305Z,101531.75
2022-08-12T15:35:31.480Z,101529.84
2022-08-12T15:38:11.984Z,101526.31
2022-08-12T15:40:48.342Z,101525.22
2022-08-12T15:43:35.555Z,101522.59
2022-08-12T15:46:06.203Z,101520.28
2022-08-12T15:48:34.006Z,101523.94
2022-08-12T15:51:04.101Z,101520.69
2022-08-12T15:53:54.697Z,101518.78
2022-08-12T15:56:29.091Z,101512.50
2022-08-12T15:58:59.169Z,101522.59
2022-08-12T16:01:34.984Z,101505.91
2022-08-12T16:04:05.141Z,101511.84
2022-08-12T16:09:55.837Z,101507.34
2022-08-12T16:12:12.332Z,101505.69
2022-08-12T16:14:42.450Z,101500.22
2022-08-12T16:17:15.668Z,101503.78
2022-08-12T16:20:03.921Z,101492.28
2022-08-12T16:22:32.575Z,101498.25
2022-08-12T16:25:03.561Z,101492.94
2022-08-12T16:27:38.632Z,101495.09
2022-08-12T16:30:07.654Z,101487.63
2022-08-12T16:32:36.746Z,101494.44
2022-08-12T16:35:08.039Z,101494.91
2022-08-12T16:38:24.401Z,101501.13
2022-08-12T16:40:33.747Z,101495.78
2022-08-12T16:43:04.670Z,101495.66
2022-08-12T16:46:07.972Z,101492.34
2022-08-12T16:48:34.757Z,101497.44
2022-08-12T16:51:05.825Z,101483.97
2022-08-12T16:53:44.654Z,101489.66
2022-08-12T16:56:14.761Z,101478.91
2022-08-12T16:58:43.402Z,101478.53
2022-08-12T17:01:14.601Z,101486.16
2022-08-12T17:03:52.084Z,101474.88
2022-08-12T17:06:22.386Z,101478.25
2022-08-12T17:09:03.568Z,101473.63
2022-08-12T17:11:38.835Z,101466.38
2022-08-12T17:14:07.502Z,101474.56
2022-08-12T17:16:37.437Z,101471.50
2022-08-12T17:19:09.249Z,101473.00
2022-08-12T17:21:41.673Z,101476.25
2022-08-12T17:24:30.460Z,101466.03
2022-08-12T17:26:59.665Z,101467.84
2022-08-12T17:30:00.284Z,101465.25
2022-08-12T17:32:15.404Z,101466.78
2022-08-12T17:35:15.269Z,101475.44
2022-08-12T17:37:45.171Z,101469.03
2022-08-12T17:40:34.651Z,101479.00
2022-08-12T17:43:03.217Z,101471.91
2022-08-12T17:45:52.638Z,101463.84
2022-08-12T17:48:21.885Z,101470.84
2022-08-12T17:50:51.746Z,101465.63
2022-08-12T17:53:20.799Z,101464.16
2022-08-12T17:55:51.024Z,101471.75
2022-08-12T17:58:35.809Z,101476.38
2022-08-12T18:01:11.093Z,101474.34
2022-08-12T18:04:04.578Z,101484.44
2022-08-12T18:06:28.604Z,101478.63
2022-08-12T18:08:59.182Z,101489.53
2022-08-12T18:12:04.615Z,101481.72
2022-08-12T18:14:37.351Z,101477.91
2022-08-12T18:17:08.688Z,101481.13
2022-08-12T18:20:44.659Z,101491.66
2022-08-12T18:23:12.710Z,101495.31
2022-08-12T18:26:16.015Z,101499.34
2022-08-12T18:28:48.254Z,101505.47
2022-08-12T18:31:17.769Z,101502.41
2022-08-12T18:33:46.889Z,101491.84
2022-08-12T18:36:22.351Z,101494.81
2022-08-12T18:38:56.055Z,101500.09
2022-08-12T18:41:35.696Z,101504.56
2022-08-12T18:44:09.602Z,101502.16
2022-08-12T18:46:53.736Z,101510.91
2022-08-12T18:49:29.634Z,101512.66
2022-08-12T18:52:04.308Z,101511.66
2022-08-12T18:54:34.857Z,101515.91
2022-08-12T18:57:07.034Z,101522.44
2022-08-12T19:00:01.890Z,101526.66
2022-08-12T19:02:36.542Z,101531.50
2022-08-12T19:05:10.591Z,101531.97
2022-08-12T19:08:00.035Z,101529.09
2022-08-12T19:10:29.831Z,101538.72
2022-08-12T19:13:23.216Z,101536.72
2022-08-12T19:15:53.252Z,101542.22
2022-08-12T19:18:22.010Z,101542.22
2022-08-12T19:20:50.657Z,101538.50
2022-08-12T19:23:21.509Z,101546.91
2022-08-12T19:25:59.669Z,101544.84
2022-08-12T19:28:34.713Z,101539.03
2022-08-12T19:31:55.762Z,101539.94
2022-08-12T19:35:06.635Z,101536.69
2022-08-12T19:37:22.908Z,101537.34
2022-08-12T19:40:08.992Z,101542.66
2022-08-12T19:42:57.648Z,101544.56
2022-08-12T19:45:43.460Z,101547.72
2022-08-12T19:48:19.266Z,101546.75
2022-08-12T19:50:50.086Z,101555.31
2022-08-12T19:53:22.945Z,101555.38
2022-08-12T19:55:53.793Z,101559.63
2022-08-12T19:58:22.929Z,101550.44
2022-08-12T20:00:52.761Z,101560.31
2022-08-12T20:03:38.033Z,101554.97
2022-08-12T20:06:14.090Z,101557.72
2022-08-12T20:08:48.761Z,101560.47
2022-08-12T20:12:10.354Z,101559.88
2022-08-12T20:14:14.135Z,101561.81
2022-08-12T20:16:52.783Z,101569.16
2022-08-12T20:19:53.226Z,101565.44
2022-08-12T20:22:16.730Z,101560.25
2022-08-12T20:24:55.317Z,101570.09
2022-08-12T20:28:04.370Z,101563.84
2022-08-12T20:30:20.601Z,101570.78
2022-08-12T20:33:05.682Z,101563.50
2022-08-12T20:36:06.178Z,101561.00
2022-08-12T20:38:26.598Z,101563.50
2022-08-12T20:40:55.635Z,101566.06
2022-08-12T20:43:28.374Z,101559.00
2022-08-12T20:45:59.990Z,101566.09
2022-08-12T20:48:29.544Z,101571.75
2022-08-12T20:50:57.605Z,101574.47
2022-08-12T20:53:27.761Z,101577.41
2022-08-12T20:56:19.545Z,101577.63
2022-08-12T20:58:49.842Z,101575.94
2022-08-12T21:01:23.857Z,101580.75
2022-08-12T21:04:14.317Z,101575.13
2022-08-12T21:07:04.545Z,101566.16
2022-08-12T21:09:41.423Z,101566.97
2022-08-12T21:12:27.982Z,101570.13
2022-08-12T21:15:16.998Z,101566.38
2022-08-12T21:18:00.923Z,101566.16
2022-08-12T21:20:37.006Z,101564.09
2022-08-12T21:23:06.204Z,101567.00
2022-08-12T21:25:44.659Z,101568.44
2022-08-12T21:28:13.173Z,101571.97
2022-08-12T21:31:11.088Z,101566.31
2022-08-12T21:33:31.363Z,101565.72
2022-08-12T21:36:00.929Z,101566.53
2022-08-12T21:38:34.455Z,101569.00
2022-08-12T21:41:09.000Z,101575.25
2022-08-12T21:43:45.286Z,101571.50
2022-08-12T21:46:34.648Z,101565.22
2022-08-12T21:49:05.456Z,101571.88
2022-08-12T21:51:35.354Z,101567.25
2022-08-12T21:54:21.908Z,101561.84
2022-08-12T21:56:52.968Z,101566.63
2022-08-12T21:59:22.041Z,101579.28
2022-08-12T22:01:51.419Z,101562.16
2022-08-12T22:04:36.922Z,101570.47
2022-08-12T22:07:06.230Z,101570.28
2022-08-12T22:09:43.339Z,101567.13
2022-08-12T22:12:29.119Z,101566.50
2022-08-12T22:14:56.798Z,101572.28
2022-08-12T22:17:49.388Z,101568.53
2022-08-12T22:20:22.074Z,101579.13
2022-08-12T22:22:56.779Z,101567.84
2022-08-12T22:25:27.816Z,101574.72
2022-08-12T22:28:13.169Z,101569.06
2022-08-12T22:30:59.018Z,101575.13
2022-08-12T22:33:28.058Z,101582.41
2022-08-12T22:35:59.539Z,101574.47
2022-08-12T22:38:29.738Z,101581.09
2022-08-12T22:41:00.738Z,101571.75
2022-08-12T22:43:58.992Z,101571.75
2022-08-12T22:46:59.297Z,101577.31
2022-08-12T22:49:36.743Z,101572.13
2022-08-12T22:52:18.319Z,101562.09
2022-08-12T22:55:02.974Z,101575.03
2022-08-12T22:57:53.395Z,101561.88
2022-08-12T23:00:23.714Z,101574.34
2022-08-12T23:03:00.864Z,101567.66
2022-08-12T23:05:57.236Z,101571.78
2022-08-12T23:08:29.979Z,101563.88
2022-08-12T23:10:59.441Z,101572.16
2022-08-12T23:13:45.027Z,101568.19
2022-08-12T23:16:28.277Z,101564.66
2022-08-12T23:19:01.857Z,101573.81
2022-08-12T23:22:06.738Z,101569.59
2022-08-12T23:24:30.586Z,101566.69
2022-08-12T23:27:16.549Z,101567.06
2022-08-12T23:30:05.924Z,101566.16
2022-08-12T23:32:35.938Z,101564.50
2022-08-12T23:35:06.603Z,101566.56
2022-08-12T23:37:46.533Z,101569.84
2022-08-12T23:40:22.527Z,101574.81
2022-08-12T23:42:54.188Z,101572.47
2022-08-12T23:45:31.682Z,101579.31
2022-08-12T23:48:02.104Z,101576.34
2022-08-12T23:50:34.200Z,101576.13
2022-08-12T23:53:06.713Z,101570.25
2022-08-12T23:55:45.680Z,101564.59
2022-08-12T23:58:17.791Z,101580.34
